createdAt,value
2024-03-24T00:01:56.695Z,56.12012
2024-03-24T00:03:09.640Z,56.07324
2024-03-24T00:05:09.581Z,56.02344
2024-03-24T00:07:09.627Z,56.04688
2024-03-24T00:09:09.677Z,55.99512
2024-03-24T00:11:09.571Z,55.88379
2024-03-24T00:13:09.584Z,56.2334
2024-03-24T00:15:09.759Z,55.9248
2024-03-24T00:18:49.530Z,55.90918
2024-03-24T00:20:49.667Z,56.25391
2024-03-24T00:22:49.484Z,56.2207
2024-03-24T00:24:49.504Z,56.40137
2024-03-24T00:26:49.614Z,56.58301
2024-03-24T00:28:49.490Z,56.44922
2024-03-24T00:30:49.528Z,56.54492
2024-03-24T00:33:52.560Z,57.00586
2024-03-24T00:35:52.537Z,57.07813
2024-03-24T00:37:52.501Z,57.14453
2024-03-24T00:39:52.607Z,57.22949
2024-03-24T00:41:52.547Z,57.09668
2024-03-24T00:43:52.504Z,57.375
2024-03-24T00:45:52.618Z,58.0332
2024-03-24T00:49:09.846Z,58.05469
2024-03-24T00:51:09.638Z,58.06543
2024-03-24T00:53:09.602Z,58.27539
2024-03-24T00:55:09.825Z,58.55371
2024-03-24T00:57:09.674Z,58.61133
2024-03-24T00:59:09.598Z,58.66602
2024-03-24T01:01:09.676Z,59.41699
2024-03-24T01:03:54.480Z,59.56934
2024-03-24T01:05:54.420Z,59.9707
2024-03-24T01:07:54.435Z,59.76758
2024-03-24T01:09:54.509Z,59.54492
2024-03-24T01:11:54.405Z,59.49902
2024-03-24T01:13:54.415Z,60.26855
2024-03-24T01:15:54.476Z,60.19043
2024-03-24T01:19:33.556Z,60.4375
2024-03-24T01:21:33.672Z,59.9541
2024-03-24T01:23:33.708Z,59.82617
2024-03-24T01:25:33.559Z,59.94141
2024-03-24T01:27:33.499Z,60.35059
2024-03-24T01:29:33.792Z,59.9248
2024-03-24T01:31:33.578Z,59.94531
2024-03-24T01:34:30.303Z,60.61719
2024-03-24T01:36:30.313Z,60.98926
2024-03-24T01:38:30.282Z,60.54688
2024-03-24T01:40:30.343Z,60.60938
2024-03-24T01:42:30.216Z,60.23633
2024-03-24T01:44:30.270Z,60.49902
2024-03-24T01:46:30.246Z,60.63184
2024-03-24T01:49:17.658Z,60.23535
2024-03-24T01:51:17.688Z,59.6748
2024-03-24T01:53:17.663Z,59.42969
2024-03-24T01:55:17.679Z,59.21484
2024-03-24T01:57:17.716Z,59.01563
2024-03-24T01:59:17.656Z,58.69922
2024-03-24T02:01:17.633Z,58.29297
2024-03-24T02:04:41.889Z,58.38965
2024-03-24T02:06:41.875Z,58.10645
2024-03-24T02:08:41.867Z,57.96289
2024-03-24T02:10:41.974Z,58.29785
2024-03-24T02:12:41.911Z,59.02246
2024-03-24T02:14:41.863Z,59.86523
2024-03-24T02:16:42.002Z,59.99414
2024-03-24T02:19:19.015Z,59.9668
2024-03-24T02:21:19.008Z,60.98535
2024-03-24T02:23:19.093Z,61.37109
2024-03-24T02:25:18.989Z,60.32422
2024-03-24T02:27:18.993Z,60.75488
2024-03-24T02:29:19.155Z,60.1416
2024-03-24T02:31:18.968Z,60.64258
2024-03-24T02:34:38.791Z,59.60449
2024-03-24T02:36:38.494Z,59.20508
2024-03-24T02:38:38.460Z,58.95996
2024-03-24T02:40:38.604Z,58.56543
2024-03-24T02:42:38.487Z,58.30762
2024-03-24T02:44:38.503Z,58.35938
2024-03-24T02:46:38.528Z,58.19727
2024-03-24T02:50:14.624Z,58.13281
2024-03-24T02:52:14.721Z,58.32031
2024-03-24T02:54:14.594Z,58.50293
2024-03-24T02:56:14.606Z,58.21875
2024-03-24T02:58:14.730Z,58.4668
2024-03-24T03:00:14.655Z,58.22168
2024-03-24T03:02:14.601Z,58.79492
2024-03-24T03:05:15.373Z,58.27637
2024-03-24T03:07:15.308Z,58.54199
2024-03-24T03:09:15.288Z,58.60449
2024-03-24T03:11:15.625Z,58.79199
2024-03-24T03:13:15.382Z,58.54199
2024-03-24T03:15:15.286Z,59.60742
2024-03-24T03:17:15.382Z,59.21289
2024-03-24T03:19:50.350Z,59.12793
2024-03-24T03:21:50.353Z,59.09082
2024-03-24T03:23:50.422Z,59.75586
2024-03-24T03:25:50.597Z,60.22559
2024-03-24T03:27:50.341Z,60.1709
2024-03-24T03:29:50.336Z,60.30371
2024-03-24T03:31:50.431Z,60.53223
2024-03-24T03:34:51.852Z,61.08691
2024-03-24T03:36:51.891Z,61.25391
2024-03-24T03:38:51.829Z,60.83203
2024-03-24T03:40:51.916Z,61.56445
2024-03-24T03:42:51.814Z,61.83301
2024-03-24T03:44:51.809Z,63.09375
2024-03-24T03:46:51.861Z,61.77148
2024-03-24T03:48:51.811Z,62.40918
2024-03-24T03:50:33.361Z,64.57129
2024-03-24T03:52:33.389Z,62.75684
2024-03-24T03:54:33.324Z,61.85645
2024-03-24T03:56:33.319Z,61.61719
2024-03-24T03:58:33.387Z,61.88281
2024-03-24T04:00:33.343Z,62.42383
2024-03-24T04:02:33.347Z,63.29395
2024-03-24T04:05:24.837Z,63.28906
2024-03-24T04:07:24.822Z,63.2627
2024-03-24T04:09:24.794Z,62.7998
2024-03-24T04:11:24.923Z,63.24512
2024-03-24T04:13:24.796Z,63.48438
2024-03-24T04:15:24.764Z,63.08887
2024-03-24T04:17:24.950Z,63.16113
2024-03-24T04:21:05.149Z,63.47168
2024-03-24T04:23:05.287Z,63.60352
2024-03-24T04:25:05.129Z,63.50195
2024-03-24T04:27:05.744Z,63.25684
2024-03-24T04:29:05.133Z,63.38281
2024-03-24T04:31:05.141Z,63.46289
2024-03-24T04:33:05.144Z,63.8291
2024-03-24T04:35:57.104Z,63.57813
2024-03-24T04:37:57.099Z,64.02734
2024-03-24T04:39:57.041Z,64.15039
2024-03-24T04:41:57.059Z,64.13281
2024-03-24T04:43:56.997Z,64.125
2024-03-24T04:45:57.052Z,64.53613
2024-03-24T04:47:57.140Z,64.77832
2024-03-24T04:51:05.231Z,64.3623
2024-03-24T04:53:32.783Z,63.96484
2024-03-24T04:55:32.811Z,64.24805
2024-03-24T04:57:32.752Z,63.85059
2024-03-24T04:59:33.119Z,64.20117
2024-03-24T05:01:32.721Z,64.01172
2024-03-24T05:03:32.769Z,64.10352
2024-03-24T05:05:32.888Z,63.47754
2024-03-24T05:07:32.849Z,63.96875
2024-03-24T05:09:35.109Z,63.93652
2024-03-24T05:11:35.142Z,63.8418
2024-03-24T05:13:35.397Z,64.36426
2024-03-24T05:15:35.028Z,62.31348
2024-03-24T05:17:36.628Z,59.66406
2024-03-24T05:21:02.945Z,56.40332
2024-03-24T05:22:42.481Z,54.71387
2024-03-24T05:24:42.660Z,54.93945
2024-03-24T05:26:42.524Z,55.05371
2024-03-24T05:28:55.663Z,53.41992
2024-03-24T05:30:42.569Z,48.21289
2024-03-24T05:32:42.560Z,46.01953
2024-03-24T05:34:42.509Z,43.84961
2024-03-24T05:36:21.283Z,42.9375
2024-03-24T05:38:21.154Z,41.46094
2024-03-24T05:40:21.222Z,42.65137
2024-03-24T05:42:21.395Z,42.82129
2024-03-24T05:44:21.182Z,43.69629
2024-03-24T05:46:21.175Z,46.09766
2024-03-24T05:48:21.370Z,48.83887
2024-03-24T05:50:21.160Z,50.00293
2024-03-24T05:51:59.691Z,51.14746
2024-03-24T05:53:59.768Z,52.40723
2024-03-24T05:56:00.189Z,54.1709
2024-03-24T05:57:59.675Z,56.69824
2024-03-24T05:59:59.679Z,57.5752
2024-03-24T06:01:59.946Z,58.02441
2024-03-24T06:06:48.311Z,58.62305
2024-03-24T06:08:48.288Z,60.75586
2024-03-24T06:10:48.307Z,62.03711
2024-03-24T06:12:48.469Z,60.19434
2024-03-24T06:14:48.364Z,59.73926
2024-03-24T06:16:48.300Z,59.38086
2024-03-24T06:18:48.534Z,57.99121
2024-03-24T06:22:08.431Z,58.63965
2024-03-24T06:24:08.566Z,57.6123
2024-03-24T06:26:08.476Z,57.23242
2024-03-24T06:28:08.700Z,56.83496
2024-03-24T06:30:08.528Z,56.66895
2024-03-24T06:32:08.488Z,56.7793
2024-03-24T06:34:08.456Z,55.60449
2024-03-24T06:37:04.173Z,54.47461
2024-03-24T06:39:03.889Z,54.45801
2024-03-24T06:41:03.928Z,53.11816
2024-03-24T06:43:04.027Z,54.12793
2024-03-24T06:45:04.160Z,54.2793
2024-03-24T06:47:03.919Z,53.89355
2024-03-24T06:49:03.957Z,52.37305
2024-03-24T06:52:50.030Z,52.43945
2024-03-24T06:54:50.194Z,53.01172
2024-03-24T06:56:50.003Z,51.19336
2024-03-24T06:58:50.035Z,50.7959
2024-03-24T07:00:50.115Z,47.25879
2024-03-24T07:02:50.054Z,47.79492
2024-03-24T07:04:50.024Z,45.66992
2024-03-24T07:07:30.828Z,45.85059
2024-03-24T07:09:30.626Z,44.63477
2024-03-24T07:11:30.621Z,45.73633
2024-03-24T07:13:30.672Z,44.72559
2024-03-24T07:15:30.601Z,44.11328
2024-03-24T07:17:30.674Z,45.73535
2024-03-24T07:19:30.664Z,44.28809
2024-03-24T07:22:20.245Z,44.03418
2024-03-24T07:24:20.109Z,44.2002
2024-03-24T07:26:25.175Z,43.35059
2024-03-24T07:28:20.304Z,42.14844
2024-03-24T07:30:20.124Z,43.91797
2024-03-24T07:32:20.136Z,43.20703
2024-03-24T07:34:20.302Z,42.22852
2024-03-24T07:37:24.103Z,40.84766
2024-03-24T07:39:24.095Z,41.09277
2024-03-24T07:41:24.002Z,41.45801
2024-03-24T07:43:24.333Z,40.88184
2024-03-24T07:45:24.080Z,41.34668
2024-03-24T07:47:23.991Z,40.03223
2024-03-24T07:49:24.135Z,40.16211
2024-03-24T07:51:24.000Z,40.6416
2024-03-24T07:52:49.372Z,40.68945
2024-03-24T07:54:49.233Z,40.63184
2024-03-24T07:56:49.200Z,39.53613
2024-03-24T07:58:49.208Z,40.65332
2024-03-24T08:00:49.213Z,40.56934
2024-03-24T08:04:21.946Z,41.41602
2024-03-24T08:06:17.315Z,39.88867
2024-03-24T08:08:17.340Z,39.41406
2024-03-24T08:10:17.363Z,39.06348
2024-03-24T08:12:17.319Z,40.31055
2024-03-24T08:14:17.286Z,39.47949
2024-03-24T08:16:18.223Z,40.38672
2024-03-24T08:18:17.266Z,40.39648
2024-03-24T08:20:09.075Z,38.79785
2024-03-24T08:22:09.124Z,38.69336
2024-03-24T08:24:09.095Z,38.99805
2024-03-24T08:26:09.331Z,39.47656
2024-03-24T08:28:09.071Z,40.92188
2024-03-24T08:30:09.074Z,38.75879
2024-03-24T08:32:09.118Z,38.08008
2024-03-24T08:35:36.767Z,37.02734
2024-03-24T08:37:36.911Z,38.50391
2024-03-24T08:39:36.818Z,36.69434
2024-03-24T08:41:36.765Z,39.69824
2024-03-24T08:43:36.931Z,38.8584
2024-03-24T08:45:37.380Z,37.99512
2024-03-24T08:47:36.780Z,39.64063
2024-03-24T08:50:24.197Z,38.84277
2024-03-24T08:52:24.325Z,39.03613
2024-03-24T08:54:24.189Z,38.0957
2024-03-24T08:56:24.258Z,36.70703
2024-03-24T08:58:24.339Z,35.77832
2024-03-24T09:00:24.278Z,36.16504
2024-03-24T09:02:24.193Z,36.01855
2024-03-24T09:05:14.645Z,34.34863
2024-03-24T09:07:14.540Z,33.05469
2024-03-24T09:09:14.579Z,35.35059
2024-03-24T09:11:14.706Z,34.11621
2024-03-24T09:13:14.582Z,33.04688
2024-03-24T09:15:14.554Z,33.8418
2024-03-24T09:17:14.592Z,33.60352
2024-03-24T09:20:20.992Z,34.45605
2024-03-24T09:22:21.063Z,32.11719
2024-03-24T09:24:20.964Z,34.4502
2024-03-24T09:26:21.030Z,32.54004
2024-03-24T09:28:20.973Z,34.61328
2024-03-24T09:30:21.104Z,33.37207
2024-03-24T09:32:20.928Z,36.46777
2024-03-24T09:35:39.481Z,34.89844
2024-03-24T09:37:39.626Z,32.34473
2024-03-24T09:39:39.481Z,34.22656
2024-03-24T09:41:39.483Z,32.80664
2024-03-24T09:43:39.499Z,33.78711
2024-03-24T09:45:39.470Z,33.0293
2024-03-24T09:47:39.428Z,32.49902
2024-03-24T09:51:08.509Z,32.04297
2024-03-24T09:53:08.286Z,33.06348
2024-03-24T09:55:08.306Z,33.84082
2024-03-24T09:57:09.331Z,32.35059
2024-03-24T09:59:08.276Z,31.91895
2024-03-24T10:01:08.300Z,32.0332
2024-03-24T10:03:08.407Z,32.14258
2024-03-24T10:06:13.659Z,30.07031
2024-03-24T10:08:13.897Z,30.52637
2024-03-24T10:10:14.232Z,30.87793
2024-03-24T10:12:13.613Z,30.34766
2024-03-24T10:14:14.854Z,30.44043
2024-03-24T10:16:13.843Z,30.08105
2024-03-24T10:18:13.556Z,32.25488
2024-03-24T10:21:25.019Z,31.52051
2024-03-24T10:23:24.651Z,29.86719
2024-03-24T10:25:24.716Z,30.20215
2024-03-24T10:27:24.704Z,29.51465
2024-03-24T10:29:24.660Z,29.88379
2024-03-24T10:31:24.707Z,26.66016
2024-03-24T10:33:24.757Z,28.79102
2024-03-24T10:36:19.537Z,28.91016
2024-03-24T10:38:19.550Z,28.80762
2024-03-24T10:40:19.819Z,26.22461
2024-03-24T10:42:19.523Z,28.59961
2024-03-24T10:44:19.501Z,26.94434
2024-03-24T10:46:23.671Z,27.43066
2024-03-24T10:48:19.494Z,27.69238
2024-03-24T10:51:07.255Z,27.16113
2024-03-24T10:53:07.280Z,27.84473
2024-03-24T10:55:07.298Z,26.28809
2024-03-24T10:57:07.233Z,27.44629
2024-03-24T10:59:12.156Z,28.05664
2024-03-24T11:01:07.204Z,26.10059
2024-03-24T11:03:07.284Z,26.36914
2024-03-24T11:06:01.569Z,24.86426
2024-03-24T11:08:01.762Z,26.86621
2024-03-24T11:10:01.644Z,26.34082
2024-03-24T11:12:01.580Z,26.38672
2024-03-24T11:14:01.619Z,26.81543
2024-03-24T11:16:01.652Z,27.7959
2024-03-24T11:18:01.478Z,26.93652
2024-03-24T11:20:01.667Z,27.68555
2024-03-24T11:22:03.457Z,26.67871
2024-03-24T11:24:03.463Z,27.63379
2024-03-24T11:26:03.558Z,27.18359
2024-03-24T11:28:03.500Z,28.09863
2024-03-24T11:30:03.451Z,26.40527
2024-03-24T11:32:03.512Z,27.20801
2024-03-24T11:34:03.460Z,26.69531
2024-03-24T11:36:48.944Z,26.69238
2024-03-24T11:38:49.007Z,25.61426
2024-03-24T11:40:53.358Z,28.33789
2024-03-24T11:42:48.894Z,28.00684
2024-03-24T11:44:48.895Z,28.24609
2024-03-24T11:46:48.904Z,26.41309
2024-03-24T11:48:48.890Z,26.60645
2024-03-24T11:52:15.342Z,27.43164
2024-03-24T11:54:15.330Z,26.29785
2024-03-24T11:56:15.375Z,26.44531
2024-03-24T11:58:15.690Z,26.25488
2024-03-24T12:00:15.201Z,26.06934
2024-03-24T12:02:15.225Z,26.18359
2024-03-24T12:04:15.316Z,27.15234
2024-03-24T12:07:02.977Z,26.97266
2024-03-24T12:09:03.249Z,25.88477
2024-03-24T12:11:02.999Z,27.41895
2024-03-24T12:13:02.972Z,27.9873
2024-03-24T12:15:03.102Z,27.54199
2024-03-24T12:17:03.965Z,26.82324
2024-03-24T12:19:03.148Z,27.54688
2024-03-24T12:22:30.422Z,28.66113
2024-03-24T12:24:30.481Z,28.81348
2024-03-24T12:26:30.667Z,28.45117
2024-03-24T12:28:30.491Z,28.82129
2024-03-24T12:30:30.690Z,27.79785
2024-03-24T12:32:30.488Z,28.7832
2024-03-24T12:34:30.693Z,28.16797
2024-03-24T12:36:30.421Z,28.33789
2024-03-24T12:38:48.069Z,27.05859
2024-03-24T12:40:48.132Z,27.14941
2024-03-24T12:42:47.363Z,27.98242
2024-03-24T12:44:47.308Z,27.87012
2024-03-24T12:46:47.295Z,28.15039
2024-03-24T12:48:47.209Z,28.38281
2024-03-24T12:50:47.516Z,27.58301
2024-03-24T12:53:32.432Z,28.11035
2024-03-24T12:55:32.553Z,27.4082
2024-03-24T12:57:32.674Z,28.51172
2024-03-24T12:59:32.436Z,26.55664
2024-03-24T13:01:32.517Z,26.3623
2024-03-24T13:03:32.536Z,26.95215
2024-03-24T13:05:32.601Z,26.3877
2024-03-24T13:08:35.245Z,27.1709
2024-03-24T13:10:34.969Z,27.7002
2024-03-24T13:12:34.824Z,26.89258
2024-03-24T13:14:34.931Z,27.15918
2024-03-24T13:16:34.878Z,27.83984
2024-03-24T13:18:35.467Z,27.74902
2024-03-24T13:20:35.013Z,27.80176
2024-03-24T13:23:17.447Z,28.39551
2024-03-24T13:25:17.691Z,27.87695
2024-03-24T13:27:17.436Z,28.7998
2024-03-24T13:29:17.444Z,28.43164
2024-03-24T13:31:18.285Z,27.68457
2024-03-24T13:33:17.422Z,27.90234
2024-03-24T13:35:17.414Z,28.20605
2024-03-24T13:37:18.288Z,28.30762
2024-03-24T13:38:29.930Z,28.68262
2024-03-24T13:40:29.837Z,27.11816
2024-03-24T13:42:29.911Z,28.41602
2024-03-24T13:44:29.977Z,27.51465
2024-03-24T13:46:29.863Z,27.37988
2024-03-24T13:48:29.851Z,28.01855
2024-03-24T13:50:29.779Z,28.08398
2024-03-24T13:54:09.573Z,28.09668
2024-03-24T13:56:09.586Z,28.16406
2024-03-24T13:58:09.685Z,28.03711
2024-03-24T14:00:09.727Z,28.10059
2024-03-24T14:02:09.556Z,28.48828
2024-03-24T14:04:09.608Z,28.92188
2024-03-24T14:06:09.593Z,28.41406
2024-03-24T14:09:06.382Z,28.33594
2024-03-24T14:11:04.637Z,28.9209
2024-03-24T14:13:09.257Z,28.39355
2024-03-24T14:15:04.615Z,28.98535
2024-03-24T14:17:04.594Z,29.05176
2024-03-24T14:19:06.410Z,28.5
2024-03-24T14:21:04.761Z,29.23242
2024-03-24T14:24:24.689Z,29.5293
2024-03-24T14:26:24.580Z,29.06738
2024-03-24T14:28:24.506Z,29.61621
2024-03-24T14:30:25.215Z,28.79297
2024-03-24T14:32:24.606Z,29.95313
2024-03-24T14:34:24.774Z,29.47363
2024-03-24T14:36:25.276Z,29.00586
2024-03-24T14:39:35.836Z,29.20898
2024-03-24T14:41:36.109Z,28.87305
2024-03-24T14:43:35.897Z,29.72754
2024-03-24T14:45:35.362Z,29.12891
2024-03-24T14:47:35.594Z,29.03613
2024-03-24T14:49:35.400Z,28.96484
2024-03-24T14:51:35.333Z,29.72852
2024-03-24T14:54:42.881Z,29.4834
2024-03-24T14:56:42.356Z,30.11426
2024-03-24T14:58:42.308Z,30.31543
2024-03-24T15:00:42.921Z,30.5293
2024-03-24T15:02:42.313Z,30.91895
2024-03-24T15:04:42.429Z,30.58594
2024-03-24T15:06:42.786Z,30.26074
2024-03-24T15:09:23.694Z,30.52734
2024-03-24T15:11:23.651Z,31.12109
2024-03-24T15:13:23.754Z,30.89355
2024-03-24T15:15:23.756Z,32.00586
2024-03-24T15:17:23.805Z,31.68652
2024-03-24T15:19:23.816Z,32.88965
2024-03-24T15:21:23.702Z,32.8623
2024-03-24T15:25:10.686Z,32.24512
2024-03-24T15:27:10.853Z,32.06738
2024-03-24T15:29:10.765Z,32.74219
2024-03-24T15:31:11.023Z,32.71387
2024-03-24T15:33:10.617Z,32.80371
2024-03-24T15:35:10.763Z,32.96094
2024-03-24T15:37:10.979Z,33.09863
2024-03-24T15:39:24.768Z,33.25098
2024-03-24T15:41:24.710Z,33.3125
2024-03-24T15:43:27.979Z,33.20215
2024-03-24T15:45:24.757Z,34.5332
2024-03-24T15:47:24.852Z,35.08594
2024-03-24T15:49:24.699Z,35.12305
2024-03-24T15:51:25.417Z,36.79004
2024-03-24T15:53:25.393Z,38.31348
2024-03-24T15:54:50.399Z,39.31836
2024-03-24T15:56:50.467Z,41.74805
2024-03-24T15:58:53.854Z,43.24219
2024-03-24T16:00:50.452Z,42.63086
2024-03-24T16:02:50.493Z,43.11426
2024-03-24T16:04:50.680Z,41.62305
2024-03-24T16:06:50.553Z,39.94922
2024-03-24T16:10:33.747Z,39
2024-03-24T16:12:33.501Z,38.37109
2024-03-24T16:14:33.506Z,38.11719
2024-03-24T16:16:34.577Z,38.32324
2024-03-24T16:18:33.362Z,38.4209
2024-03-24T16:20:35.414Z,37.56445
2024-03-24T16:22:33.374Z,37.29297
2024-03-24T16:25:01.898Z,38.6582
2024-03-24T16:26:57.177Z,37.6416
2024-03-24T16:28:56.938Z,38.43555
2024-03-24T16:30:56.950Z,39.37598
2024-03-24T16:32:57.143Z,38.96582
2024-03-24T16:34:57.106Z,39.08984
2024-03-24T16:36:56.905Z,38.79102
2024-03-24T16:40:41.849Z,39.95703
2024-03-24T16:42:40.855Z,40.34766
2024-03-24T16:44:40.803Z,42.34668
2024-03-24T16:46:40.921Z,40.11328
2024-03-24T16:48:40.764Z,41.19727
2024-03-24T16:50:40.766Z,40.75293
2024-03-24T16:52:41.015Z,40.72168
2024-03-24T16:55:48.912Z,40.00781
2024-03-24T16:57:46.399Z,40.70605
2024-03-24T16:59:46.205Z,40.43848
2024-03-24T17:01:46.155Z,40.47754
2024-03-24T17:03:46.331Z,40.90625
2024-03-24T17:05:46.269Z,41.00391
2024-03-24T17:07:46.174Z,41.11621
2024-03-24T17:10:28.187Z,41.43652
2024-03-24T17:12:28.249Z,41.6543
2024-03-24T17:14:28.298Z,42.02637
2024-03-24T17:16:27.480Z,42.14844
2024-03-24T17:18:27.387Z,42.51855
2024-03-24T17:20:28.380Z,42.58691
2024-03-24T17:22:27.904Z,42.94238
2024-03-24T17:25:56.747Z,41.66992
2024-03-24T17:27:56.667Z,41.12012
2024-03-24T17:29:56.974Z,40.52148
2024-03-24T17:31:56.994Z,40.0625
2024-03-24T17:33:57.728Z,40.37695
2024-03-24T17:35:56.823Z,39.60938
2024-03-24T17:37:57.128Z,39.84863
2024-03-24T17:40:50.490Z,42.12207
2024-03-24T17:42:50.344Z,40.94922
2024-03-24T17:44:50.280Z,40.20996
2024-03-24T17:46:50.313Z,40.2627
2024-03-24T17:48:50.919Z,41.03613
2024-03-24T17:50:50.393Z,40.29004
2024-03-24T17:52:50.220Z,41.48242
2024-03-24T17:55:43.741Z,40.66211
2024-03-24T17:57:43.506Z,40.10449
2024-03-24T17:59:43.756Z,40.28516
2024-03-24T18:01:45.655Z,40.87793
2024-03-24T18:03:43.532Z,40.2959
2024-03-24T18:05:43.753Z,41.50098
2024-03-24T18:07:43.667Z,41.35742
2024-03-24T18:11:01.057Z,41.51758
2024-03-24T18:12:55.151Z,41.50488
2024-03-24T18:14:54.963Z,41.04883
2024-03-24T18:16:55.023Z,41.76465
2024-03-24T18:18:55.368Z,40.7627
2024-03-24T18:20:55.004Z,40.82813
2024-03-24T18:22:55.123Z,40.22461
2024-03-24T18:26:42.612Z,40.36035
2024-03-24T18:28:42.206Z,40.18457
2024-03-24T18:30:42.196Z,40.8252
2024-03-24T18:32:44.489Z,40.13965
2024-03-24T18:34:42.152Z,39.98047
2024-03-24T18:36:42.210Z,40.03613
2024-03-24T18:38:42.159Z,40.00293
2024-03-24T18:41:04.704Z,40.80566
2024-03-24T18:43:04.912Z,40.26953
2024-03-24T18:45:05.044Z,39.99902
2024-03-24T18:47:04.557Z,39.94727
2024-03-24T18:49:05.068Z,40.43262
2024-03-24T18:51:04.509Z,40.73828
2024-03-24T18:53:04.676Z,40.29199
2024-03-24T18:56:22.642Z,40.22559
2024-03-24T18:58:22.574Z,39.96777
2024-03-24T19:00:22.740Z,40.89648
2024-03-24T19:02:22.550Z,40.4209
2024-03-24T19:04:22.577Z,40.49219
2024-03-24T19:06:22.634Z,40.30664
2024-03-24T19:08:22.623Z,40.37891
2024-03-24T19:11:24.061Z,40.52734
2024-03-24T19:13:20.752Z,40.63574
2024-03-24T19:15:20.740Z,40.48047
2024-03-24T19:17:24.071Z,40.21191
2024-03-24T19:19:21.246Z,40.69043
2024-03-24T19:21:20.812Z,40.42773
2024-03-24T19:23:20.769Z,40.5957
2024-03-24T19:26:47.760Z,40.56543
2024-03-24T19:28:47.077Z,40.80078
2024-03-24T19:30:47.016Z,40.9707
2024-03-24T19:32:47.808Z,40.66992
2024-03-24T19:34:47.166Z,41.02441
2024-03-24T19:36:47.045Z,40.90039
2024-03-24T19:38:47.176Z,41.06543
2024-03-24T19:42:05.305Z,40.97461
2024-03-24T19:44:04.688Z,41.48926
2024-03-24T19:46:04.937Z,41.46582
2024-03-24T19:48:05.650Z,41.40039
2024-03-24T19:50:04.671Z,42.14746
2024-03-24T19:52:04.693Z,42.31738
2024-03-24T19:54:05.657Z,42.41992
2024-03-24T19:57:18.056Z,43.38965
2024-03-24T19:59:18.637Z,44.4375
2024-03-24T20:01:18.090Z,46.31738
2024-03-24T20:03:18.091Z,47.87012
2024-03-24T20:05:18.202Z,47.29102
2024-03-24T20:07:18.060Z,47.05664
2024-03-24T20:09:18.053Z,46.9375
2024-03-24T20:11:54.596Z,47.1123
2024-03-24T20:13:54.278Z,47.45996
2024-03-24T20:15:54.295Z,47.58398
2024-03-24T20:17:58.452Z,47.65527
2024-03-24T20:19:54.354Z,48.47949
2024-03-24T20:21:54.325Z,49.45898
2024-03-24T20:23:54.468Z,49.79297
2024-03-24T20:27:13.662Z,52.33594
2024-03-24T20:29:14.722Z,52.03125
2024-03-24T20:31:13.640Z,52.1875
2024-03-24T20:33:13.685Z,52.28906
2024-03-24T20:35:14.110Z,52.41211
2024-03-24T20:37:13.625Z,52.99023
2024-03-24T20:39:13.673Z,53.34473
2024-03-24T20:42:36.758Z,53.35059
2024-03-24T20:44:36.648Z,53.4375
2024-03-24T20:46:37.340Z,53.75586
2024-03-24T20:48:36.655Z,54.05273
2024-03-24T20:50:36.642Z,54.85352
2024-03-24T20:52:43.497Z,54.62793
2024-03-24T20:54:36.763Z,54.51367
2024-03-24T20:57:36.362Z,54.55176
2024-03-24T20:59:36.158Z,55.04102
2024-03-24T21:01:36.114Z,54.97949
2024-03-24T21:03:36.550Z,55.38672
2024-03-24T21:05:36.225Z,55.2959
2024-03-24T21:07:36.074Z,54.84961
2024-03-24T21:09:36.324Z,55.13477
2024-03-24T21:12:19.619Z,55.2168
2024-03-24T21:14:19.561Z,55.6123
2024-03-24T21:16:20.917Z,55.91504
2024-03-24T21:18:19.536Z,56.00293
2024-03-24T21:20:19.577Z,56.80371
2024-03-24T21:22:19.725Z,56.91797
2024-03-24T21:24:19.611Z,56.31152
2024-03-24T21:26:19.554Z,56.29102
2024-03-24T21:27:37.039Z,56.42871
2024-03-24T21:29:36.877Z,56.79297
2024-03-24T21:31:37.002Z,56.63477
2024-03-24T21:33:37.007Z,57.22949
2024-03-24T21:35:37.000Z,57.71582
2024-03-24T21:37:36.926Z,57.6582
2024-03-24T21:39:37.308Z,57.51563
2024-03-24T21:42:50.333Z,57.36621
2024-03-24T21:44:50.491Z,57.33496
2024-03-24T21:46:50.294Z,57.16504
2024-03-24T21:48:50.650Z,57.08105
2024-03-24T21:50:50.236Z,56.93848
2024-03-24T21:52:50.269Z,57.14941
2024-03-24T21:54:50.328Z,57.34863
2024-03-24T21:58:01.121Z,57.56641
2024-03-24T22:00:01.191Z,58.06836
